Omaha, Nebraska
Current Conditions -  °F | °C
As of 12:52 PM on Thursday 27 Nov 2014 (Local Time) from KOMA Reporting Station
Broken Clouds Broken Clouds  
Wind Chill: 10°   Ceiling: 5000
Heat Index: 19°   Visibility: 10mi
Dew Point:   Wind: 7mph
Humidity: 50%   Direction: 130°SE
Pressure: 30.47"   Gusts: NA
Location:  41.26°N, 95.94°W
Report Text: KOMA 271852Z 13006KT 10SM BKN050 M07/M16 A3047 RMK AO2 SLP335 T10721161
Loading
Personal Weather Stations






























Interactive Weather Map New forecast layout! Learn more

10-Day Weather Forecast

Advertisements
Track Severe Weather on mobile